createdAt,value
2018-01-21T00:00:28.341Z,988.91
2018-01-21T00:01:28.325Z,988.93
2018-01-21T00:02:28.310Z,988.95
2018-01-21T00:03:28.295Z,988.96
2018-01-21T00:04:28.281Z,988.97
2018-01-21T00:05:28.264Z,988.96
2018-01-21T00:06:28.251Z,989.02
2018-01-21T00:07:28.235Z,989.02
2018-01-21T00:08:28.221Z,989.07
2018-01-21T00:09:28.205Z,989.06
2018-01-21T00:10:28.190Z,989.07
2018-01-21T00:11:28.175Z,989.14
2018-01-21T00:12:28.160Z,989.15
2018-01-21T00:13:28.146Z,989.17
2018-01-21T00:14:28.130Z,989.23
2018-01-21T00:15:28.115Z,989.29
2018-01-21T00:16:28.100Z,989.31
2018-01-21T00:17:28.085Z,989.35
2018-01-21T00:18:28.070Z,989.38
2018-01-21T00:19:28.056Z,989.41
2018-01-21T00:20:28.040Z,989.46
2018-01-21T00:21:28.027Z,989.48
2018-01-21T00:22:28.010Z,989.49
2018-01-21T00:23:27.996Z,989.50
2018-01-21T00:24:27.988Z,989.49
2018-01-21T00:25:27.964Z,989.55
2018-01-21T00:26:27.949Z,989.56
2018-01-21T00:27:27.935Z,989.67
2018-01-21T00:28:27.919Z,989.66
2018-01-21T00:29:27.903Z,989.65
2018-01-21T00:30:27.890Z,989.65
2018-01-21T00:31:27.874Z,989.68
2018-01-21T00:32:27.860Z,989.73
2018-01-21T00:33:27.844Z,989.76
2018-01-21T00:34:27.828Z,989.78
2018-01-21T00:35:27.814Z,989.77
2018-01-21T00:36:27.799Z,989.77
2018-01-21T00:37:27.784Z,989.77
2018-01-21T00:38:27.770Z,989.79
2018-01-21T00:39:27.754Z,989.85
2018-01-21T00:40:27.740Z,989.84
2018-01-21T00:41:27.724Z,989.89
2018-01-21T00:42:27.710Z,989.91
2018-01-21T00:43:27.694Z,989.89
2018-01-21T00:44:27.679Z,989.93
2018-01-21T00:45:27.663Z,989.91
2018-01-21T00:46:27.649Z,989.97
2018-01-21T00:47:27.634Z,990.01
2018-01-21T00:48:27.620Z,990.02
2018-01-21T00:49:27.606Z,990.07
2018-01-21T00:50:27.590Z,990.05
2018-01-21T00:51:27.574Z,990.06
2018-01-21T00:52:27.560Z,990.06
2018-01-21T00:53:27.544Z,990.14
2018-01-21T00:54:27.532Z,990.11
2018-01-21T00:55:27.516Z,990.13
2018-01-21T00:56:27.500Z,990.14
2018-01-21T00:57:27.484Z,990.15
2018-01-21T00:58:27.469Z,990.19
2018-01-21T00:59:27.455Z,990.19
2018-01-21T01:00:27.441Z,990.16
2018-01-21T01:01:27.424Z,990.18
2018-01-21T01:02:27.409Z,990.24
2018-01-21T01:03:27.395Z,990.23
2018-01-21T01:04:27.380Z,990.24
2018-01-21T01:05:27.363Z,990.27
2018-01-21T01:06:27.348Z,990.29
2018-01-21T01:07:27.336Z,990.27
2018-01-21T01:08:27.319Z,990.30
2018-01-21T01:09:27.303Z,990.35
2018-01-21T01:10:27.289Z,990.38
2018-01-21T01:11:27.282Z,990.40
2018-01-21T01:12:27.259Z,990.44
2018-01-21T01:13:27.244Z,990.49
2018-01-21T01:14:27.230Z,990.49
2018-01-21T01:15:27.213Z,990.56
2018-01-21T01:16:27.198Z,990.59
2018-01-21T01:17:27.183Z,990.59
2018-01-21T01:18:27.168Z,990.65
2018-01-21T01:19:27.155Z,990.71
2018-01-21T01:20:27.139Z,990.70
2018-01-21T01:21:27.121Z,990.78
2018-01-21T01:22:27.107Z,990.80
2018-01-21T01:23:27.092Z,990.86
2018-01-21T01:24:27.077Z,990.89
2018-01-21T01:25:27.062Z,990.93
2018-01-21T01:26:27.048Z,990.93
2018-01-21T01:27:27.034Z,990.96
2018-01-21T01:28:27.019Z,991.02
2018-01-21T01:29:27.002Z,991.03
2018-01-21T01:30:26.987Z,991.03
2018-01-21T01:31:26.971Z,991.05
2018-01-21T01:32:26.959Z,991.09
2018-01-21T01:33:26.942Z,991.12
2018-01-21T01:34:26.927Z,991.16
2018-01-21T01:35:26.913Z,991.17
2018-01-21T01:36:26.897Z,991.18
2018-01-21T01:37:26.882Z,991.24
2018-01-21T01:38:26.912Z,991.25
2018-01-21T01:39:26.851Z,991.24
2018-01-21T01:40:26.844Z,991.27
2018-01-21T01:41:26.821Z,991.25
2018-01-21T01:42:26.806Z,991.27
2018-01-21T01:43:26.791Z,991.23
2018-01-21T01:44:26.776Z,991.30
2018-01-21T01:45:26.761Z,991.35
2018-01-21T01:46:26.746Z,991.32
2018-01-21T01:47:26.731Z,991.36
2018-01-21T01:48:26.716Z,991.36
2018-01-21T01:49:26.700Z,991.35
2018-01-21T01:50:26.686Z,991.39
2018-01-21T01:51:26.671Z,991.43
2018-01-21T01:52:26.657Z,991.49
2018-01-21T01:53:26.641Z,991.52
2018-01-21T01:54:26.626Z,991.56
2018-01-21T01:55:26.612Z,991.56
2018-01-21T01:56:26.596Z,991.58
2018-01-21T01:57:26.580Z,991.63
2018-01-21T01:58:26.565Z,991.63
2018-01-21T01:59:26.557Z,991.64
2018-01-21T02:00:26.535Z,991.63
2018-01-21T02:01:26.520Z,991.66
2018-01-21T02:02:26.508Z,991.71
2018-01-21T02:03:26.490Z,991.69
2018-01-21T02:04:26.479Z,991.75
2018-01-21T02:05:26.460Z,991.77
2018-01-21T02:06:26.445Z,991.79
2018-01-21T02:07:26.434Z,991.82
2018-01-21T02:08:26.417Z,991.86
2018-01-21T02:09:26.401Z,991.90
2018-01-21T02:10:26.386Z,991.91
2018-01-21T02:11:26.371Z,991.88
2018-01-21T02:12:26.357Z,991.91
2018-01-21T02:13:26.341Z,991.97
2018-01-21T02:14:26.327Z,991.97
2018-01-21T02:15:26.312Z,991.97
2018-01-21T02:16:26.297Z,992.01
2018-01-21T02:17:26.282Z,992.06
2018-01-21T02:18:26.271Z,992.05
2018-01-21T02:19:26.266Z,992.08
2018-01-21T02:20:26.239Z,992.07
2018-01-21T02:21:26.222Z,992.07
2018-01-21T02:22:26.207Z,992.09
2018-01-21T02:23:26.193Z,992.09
2018-01-21T02:24:26.178Z,992.12
2018-01-21T02:25:26.162Z,992.15
2018-01-21T02:26:26.147Z,992.16
2018-01-21T02:27:26.132Z,992.19
2018-01-21T02:28:26.118Z,992.24
2018-01-21T02:29:26.103Z,992.26
2018-01-21T02:30:26.087Z,992.24
2018-01-21T02:31:26.072Z,992.25
2018-01-21T02:32:26.058Z,992.25
2018-01-21T02:33:26.043Z,992.30
2018-01-21T02:34:26.028Z,992.30
2018-01-21T02:35:26.014Z,992.33
2018-01-21T02:36:25.998Z,992.37
2018-01-21T02:37:25.983Z,992.38
2018-01-21T02:38:25.968Z,992.39
2018-01-21T02:39:25.954Z,992.45
2018-01-21T02:40:25.938Z,992.45
2018-01-21T02:41:25.923Z,992.45
2018-01-21T02:42:25.908Z,992.45
2018-01-21T02:43:25.894Z,992.45
2018-01-21T02:44:25.879Z,992.52
2018-01-21T02:45:25.865Z,992.53
2018-01-21T02:46:25.849Z,992.53
2018-01-21T02:47:25.833Z,992.54
2018-01-21T02:48:25.819Z,992.49
2018-01-21T02:49:25.803Z,992.54
2018-01-21T02:50:25.788Z,992.59
2018-01-21T02:51:25.774Z,992.57
2018-01-21T02:52:25.759Z,992.63
2018-01-21T02:53:25.744Z,992.63
2018-01-21T02:54:25.729Z,992.65
2018-01-21T02:55:25.716Z,992.66
2018-01-21T02:56:25.700Z,992.69
2018-01-21T02:57:25.684Z,992.73
2018-01-21T02:58:25.669Z,992.73
2018-01-21T02:59:25.655Z,992.74
2018-01-21T03:00:25.640Z,992.75
2018-01-21T03:01:25.624Z,992.71
2018-01-21T03:02:25.610Z,992.77
2018-01-21T03:03:25.596Z,992.79
2018-01-21T03:04:25.580Z,992.80
2018-01-21T03:05:25.569Z,992.80
2018-01-21T03:06:25.551Z,992.88
2018-01-21T03:07:25.536Z,992.89
2018-01-21T03:08:25.530Z,992.89
2018-01-21T03:09:25.506Z,992.95
2018-01-21T03:10:25.491Z,992.96
2018-01-21T03:11:25.476Z,992.96
2018-01-21T03:12:25.462Z,993.05
2018-01-21T03:13:25.448Z,993.03
2018-01-21T03:14:25.432Z,993.05
2018-01-21T03:15:25.417Z,993.09
2018-01-21T03:16:25.403Z,993.09
2018-01-21T03:17:25.387Z,993.11
2018-01-21T03:18:25.373Z,993.16
2018-01-21T03:19:25.362Z,993.16
2018-01-21T03:20:25.343Z,993.16
2018-01-21T03:21:25.329Z,993.22
2018-01-21T03:22:25.314Z,993.25
2018-01-21T03:23:25.299Z,993.23
2018-01-21T03:24:25.284Z,993.30
2018-01-21T03:25:25.269Z,993.26
2018-01-21T03:26:25.255Z,993.27
2018-01-21T03:27:25.241Z,993.29
2018-01-21T03:28:25.226Z,993.27
2018-01-21T03:29:25.210Z,993.28
2018-01-21T03:30:25.197Z,993.31
2018-01-21T03:31:25.183Z,993.36
2018-01-21T03:32:25.169Z,993.40
2018-01-21T03:33:25.154Z,993.41
2018-01-21T03:34:25.137Z,993.44
2018-01-21T03:35:25.123Z,993.48
2018-01-21T03:36:25.110Z,993.48
2018-01-21T03:37:25.093Z,993.50
2018-01-21T03:38:25.080Z,993.48
2018-01-21T03:39:25.064Z,993.53
2018-01-21T03:40:25.050Z,993.55
2018-01-21T03:41:25.034Z,993.52
2018-01-21T03:42:25.020Z,993.57
2018-01-21T03:43:25.006Z,993.58
2018-01-21T03:44:24.992Z,993.60
2018-01-21T03:45:24.976Z,993.63
2018-01-21T03:46:24.962Z,993.64
2018-01-21T03:47:24.948Z,993.70
2018-01-21T03:48:24.934Z,993.74
2018-01-21T03:49:24.917Z,993.79
2018-01-21T03:50:24.911Z,993.77
2018-01-21T03:51:24.889Z,993.82
2018-01-21T03:52:24.874Z,993.82
2018-01-21T03:53:24.861Z,993.89
2018-01-21T03:54:24.851Z,993.94
2018-01-21T03:55:24.830Z,993.94
2018-01-21T03:56:24.816Z,993.98
2018-01-21T03:57:24.800Z,993.97
2018-01-21T03:58:24.785Z,993.98
2018-01-21T03:59:24.781Z,993.95
2018-01-21T04:00:24.757Z,994.04
2018-01-21T04:01:24.741Z,994.05
2018-01-21T04:02:24.729Z,994.02
2018-01-21T04:03:24.712Z,994.09
2018-01-21T04:04:24.698Z,994.08
2018-01-21T04:05:24.682Z,994.04
2018-01-21T04:06:24.702Z,994.07
2018-01-21T04:07:24.653Z,994.07
2018-01-21T04:08:24.638Z,994.07
2018-01-21T04:09:24.623Z,994.09
2018-01-21T04:10:24.614Z,994.12
2018-01-21T04:11:24.593Z,994.15
2018-01-21T04:12:24.581Z,994.16
2018-01-21T04:13:24.564Z,994.14
2018-01-21T04:14:24.548Z,994.20
2018-01-21T04:15:24.537Z,994.18
2018-01-21T04:16:24.520Z,994.18
2018-01-21T04:17:24.504Z,994.20
2018-01-21T04:18:24.491Z,994.25
2018-01-21T04:19:24.474Z,994.21
2018-01-21T04:20:24.461Z,994.19
2018-01-21T04:21:24.445Z,994.28
2018-01-21T04:22:24.430Z,994.30
2018-01-21T04:23:24.415Z,994.33
2018-01-21T04:24:24.399Z,994.36
2018-01-21T04:25:24.385Z,994.36
2018-01-21T04:26:24.370Z,994.39
2018-01-21T04:27:24.358Z,994.39
2018-01-21T04:28:24.341Z,994.39
2018-01-21T04:29:24.324Z,994.41
2018-01-21T04:30:24.312Z,994.44
2018-01-21T04:31:24.296Z,994.44
2018-01-21T04:32:24.281Z,994.42
2018-01-21T04:33:24.265Z,994.46
2018-01-21T04:34:24.250Z,994.53
2018-01-21T04:35:24.236Z,994.52
2018-01-21T04:36:24.221Z,994.50
2018-01-21T04:37:24.208Z,994.53
2018-01-21T04:38:24.190Z,994.56
2018-01-21T04:39:24.175Z,994.54
2018-01-21T04:40:24.162Z,994.63
2018-01-21T04:41:24.145Z,994.63
2018-01-21T04:42:24.137Z,994.71
2018-01-21T04:43:24.115Z,994.64
2018-01-21T04:44:24.101Z,994.68
2018-01-21T04:45:24.090Z,994.68
2018-01-21T04:46:24.070Z,994.66
2018-01-21T04:47:24.055Z,994.69
2018-01-21T04:48:24.040Z,994.72
2018-01-21T04:49:24.026Z,994.74
2018-01-21T04:50:24.009Z,994.75
2018-01-21T04:51:24.001Z,994.80
2018-01-21T04:52:23.981Z,994.74
2018-01-21T04:53:23.965Z,994.79
2018-01-21T04:54:23.949Z,994.83
2018-01-21T04:55:23.934Z,994.81
2018-01-21T04:56:23.920Z,994.85
2018-01-21T04:57:23.903Z,994.88
2018-01-21T04:58:23.888Z,994.86
2018-01-21T04:59:23.872Z,994.85
2018-01-21T05:00:23.858Z,994.88
2018-01-21T05:01:23.842Z,994.93
2018-01-21T05:02:23.828Z,994.95
2018-01-21T05:03:23.811Z,994.97
2018-01-21T05:04:23.796Z,994.93
2018-01-21T05:05:23.786Z,994.93
2018-01-21T05:06:23.765Z,994.94
2018-01-21T05:07:23.749Z,994.96
2018-01-21T05:08:23.736Z,995.00
2018-01-21T05:09:23.719Z,994.99
2018-01-21T05:10:23.711Z,994.99
2018-01-21T05:11:23.691Z,995.02
2018-01-21T05:12:23.674Z,995.04
2018-01-21T05:13:23.657Z,995.09
2018-01-21T05:14:23.642Z,995.07
2018-01-21T05:15:23.627Z,995.10
2018-01-21T05:16:23.612Z,995.11
2018-01-21T05:17:23.596Z,995.13
2018-01-21T05:18:23.580Z,995.14
2018-01-21T05:19:23.565Z,995.15
2018-01-21T05:20:23.549Z,995.15
2018-01-21T05:21:23.534Z,995.16
2018-01-21T05:22:23.518Z,995.21
2018-01-21T05:23:23.503Z,995.18
2018-01-21T05:24:23.488Z,995.21
2018-01-21T05:25:23.472Z,995.26
2018-01-21T05:26:23.457Z,995.30
2018-01-21T05:27:23.442Z,995.24
2018-01-21T05:28:23.426Z,995.27
2018-01-21T05:29:23.411Z,995.24
2018-01-21T05:30:23.396Z,995.30
2018-01-21T05:31:23.381Z,995.32
2018-01-21T05:32:23.366Z,995.37
2018-01-21T05:33:23.350Z,995.38
2018-01-21T05:34:23.335Z,995.37
2018-01-21T05:35:23.318Z,995.35
2018-01-21T05:36:23.304Z,995.39
2018-01-21T05:37:23.288Z,995.40
2018-01-21T05:38:23.273Z,995.37
2018-01-21T05:39:23.257Z,995.43
2018-01-21T05:40:23.241Z,995.45
2018-01-21T05:41:23.239Z,995.46
2018-01-21T05:42:23.211Z,995.46
2018-01-21T05:43:23.195Z,995.44
2018-01-21T05:44:23.179Z,995.44
2018-01-21T05:45:23.163Z,995.49
2018-01-21T05:46:23.148Z,995.54
2018-01-21T05:47:23.132Z,995.57
2018-01-21T05:48:23.118Z,995.54
2018-01-21T05:49:23.102Z,995.62
2018-01-21T05:50:23.087Z,995.63
2018-01-21T05:51:23.071Z,995.63
2018-01-21T05:52:23.056Z,995.62
2018-01-21T05:53:23.039Z,995.64
2018-01-21T05:54:23.024Z,995.63
2018-01-21T05:55:23.009Z,995.65
2018-01-21T05:56:22.994Z,995.71
2018-01-21T05:57:22.979Z,995.72
2018-01-21T05:58:22.962Z,995.69
2018-01-21T05:59:22.948Z,995.80
2018-01-21T06:00:22.932Z,995.76
2018-01-21T06:01:22.915Z,995.74
2018-01-21T06:02:22.899Z,995.83
2018-01-21T06:03:22.884Z,995.89
2018-01-21T06:04:22.869Z,995.81
2018-01-21T06:05:22.854Z,995.86
2018-01-21T06:06:22.838Z,995.88
2018-01-21T06:07:22.822Z,995.92
2018-01-21T06:08:22.807Z,995.97
2018-01-21T06:09:22.792Z,995.95
2018-01-21T06:10:22.776Z,996.02
2018-01-21T06:11:22.761Z,996.03
2018-01-21T06:12:22.746Z,996.04
2018-01-21T06:13:22.728Z,996.02
2018-01-21T06:14:22.715Z,996.08
2018-01-21T06:15:22.699Z,996.01
2018-01-21T06:16:22.686Z,996.08
2018-01-21T06:17:22.667Z,996.11
2018-01-21T06:18:22.651Z,996.19
2018-01-21T06:19:22.636Z,996.21
2018-01-21T06:20:22.622Z,996.24
2018-01-21T06:21:22.605Z,996.25
2018-01-21T06:22:22.590Z,996.21
2018-01-21T06:23:22.574Z,996.28
2018-01-21T06:24:22.558Z,996.25
2018-01-21T06:25:22.541Z,996.29
2018-01-21T06:26:22.527Z,996.32
2018-01-21T06:27:22.511Z,996.33
2018-01-21T06:28:22.496Z,996.40
2018-01-21T06:29:22.480Z,996.40
2018-01-21T06:30:22.464Z,996.41
2018-01-21T06:31:22.452Z,996.40
2018-01-21T06:32:22.459Z,996.44
2018-01-21T06:33:22.418Z,996.46
2018-01-21T06:34:22.403Z,996.49
2018-01-21T06:35:22.388Z,996.48
2018-01-21T06:36:22.373Z,996.54
2018-01-21T06:37:22.357Z,996.52
2018-01-21T06:38:22.340Z,996.53
2018-01-21T06:39:22.325Z,996.55
2018-01-21T06:40:22.309Z,996.59
2018-01-21T06:41:22.299Z,996.63
2018-01-21T06:42:22.279Z,996.66
2018-01-21T06:43:22.264Z,996.63
2018-01-21T06:44:22.249Z,996.63
2018-01-21T06:45:22.232Z,996.63
2018-01-21T06:46:22.216Z,996.65
2018-01-21T06:47:22.202Z,996.66
2018-01-21T06:48:22.185Z,996.68
2018-01-21T06:49:22.170Z,996.71
2018-01-21T06:50:22.154Z,996.72
2018-01-21T06:51:22.138Z,996.79
2018-01-21T06:52:22.125Z,996.83
2018-01-21T06:53:22.107Z,996.85
2018-01-21T06:54:22.092Z,996.85
2018-01-21T06:55:22.081Z,996.88
2018-01-21T06:56:22.062Z,996.92
2018-01-21T06:57:22.046Z,996.93
2018-01-21T06:58:22.030Z,996.92
2018-01-21T06:59:22.015Z,996.93
2018-01-21T07:00:21.999Z,996.98
2018-01-21T07:01:21.983Z,997.02
2018-01-21T07:02:21.969Z,997.03
2018-01-21T07:03:21.954Z,997.06
2018-01-21T07:04:21.938Z,997.06
2018-01-21T07:05:21.921Z,997.07
2018-01-21T07:06:21.912Z,997.08
2018-01-21T07:07:21.891Z,997.05
2018-01-21T07:08:21.875Z,997.07
2018-01-21T07:09:21.859Z,997.09
2018-01-21T07:10:21.843Z,997.11
2018-01-21T07:11:21.828Z,997.12
2018-01-21T07:12:21.813Z,997.12
2018-01-21T07:13:21.800Z,997.15
2018-01-21T07:14:21.781Z,997.12
2018-01-21T07:15:21.769Z,997.13
2018-01-21T07:16:21.757Z,997.18
2018-01-21T07:17:21.735Z,997.07
2018-01-21T07:18:21.718Z,997.16
2018-01-21T07:19:21.704Z,997.16
2018-01-21T07:20:21.688Z,997.18
2018-01-21T07:21:21.670Z,997.15
2018-01-21T07:22:21.656Z,997.18
2018-01-21T07:23:21.641Z,997.25
2018-01-21T07:24:21.626Z,997.30
2018-01-21T07:25:21.610Z,997.32
2018-01-21T07:26:21.593Z,997.30
2018-01-21T07:27:21.577Z,997.33
2018-01-21T07:28:21.563Z,997.30
2018-01-21T07:29:21.546Z,997.34
2018-01-21T07:30:21.530Z,997.42
2018-01-21T07:31:21.519Z,997.45
2018-01-21T07:32:21.500Z,997.41
2018-01-21T07:33:21.484Z,997.39
2018-01-21T07:34:21.501Z,997.43
2018-01-21T07:35:21.454Z,997.51
2018-01-21T07:36:21.437Z,997.52
2018-01-21T07:37:21.421Z,997.56
2018-01-21T07:38:21.406Z,997.60
2018-01-21T07:39:21.390Z,997.67
2018-01-21T07:40:21.379Z,997.69
2018-01-21T07:41:21.359Z,997.72
2018-01-21T07:42:21.343Z,997.71
2018-01-21T07:43:21.327Z,997.71
2018-01-21T07:44:21.313Z,997.75
2018-01-21T07:45:21.296Z,997.74
2018-01-21T07:46:21.281Z,997.80
2018-01-21T07:47:21.266Z,997.82
2018-01-21T07:48:21.251Z,997.83
2018-01-21T07:49:21.234Z,997.87
2018-01-21T07:50:21.220Z,997.84
2018-01-21T07:51:21.204Z,997.83
2018-01-21T07:52:21.188Z,997.83
2018-01-21T07:53:21.174Z,997.88
2018-01-21T07:54:21.161Z,997.85
2018-01-21T07:55:21.142Z,997.89
2018-01-21T07:56:21.127Z,997.91
2018-01-21T07:57:21.112Z,997.93
2018-01-21T07:58:21.095Z,997.97
2018-01-21T07:59:21.081Z,997.94
2018-01-21T08:00:21.065Z,997.96
2018-01-21T08:01:21.049Z,998.05
2018-01-21T08:02:21.033Z,998.02
2018-01-21T08:03:21.019Z,998.00
2018-01-21T08:04:21.004Z,998.01
2018-01-21T08:05:20.988Z,998.04
2018-01-21T08:06:20.973Z,998.07
2018-01-21T08:07:20.958Z,998.10
2018-01-21T08:08:20.942Z,998.18
2018-01-21T08:09:20.927Z,998.18
2018-01-21T08:10:20.913Z,998.22
2018-01-21T08:11:20.897Z,998.25
2018-01-21T08:12:20.882Z,998.24
2018-01-21T08:13:20.867Z,998.30
2018-01-21T08:14:20.854Z,998.30
2018-01-21T08:15:20.837Z,998.30
2018-01-21T08:16:20.822Z,998.33
2018-01-21T08:17:20.806Z,998.35
2018-01-21T08:18:20.791Z,998.36
2018-01-21T08:19:20.776Z,998.39
2018-01-21T08:20:20.761Z,998.42
2018-01-21T08:21:20.745Z,998.45
2018-01-21T08:22:20.730Z,998.47
2018-01-21T08:23:20.715Z,998.45
2018-01-21T08:24:20.700Z,998.50
2018-01-21T08:25:20.684Z,998.52
2018-01-21T08:26:20.670Z,998.52
2018-01-21T08:27:20.655Z,998.52
2018-01-21T08:28:20.641Z,998.56
2018-01-21T08:29:20.626Z,998.54
2018-01-21T08:30:20.611Z,998.55
2018-01-21T08:31:20.596Z,998.56
2018-01-21T08:32:20.582Z,998.54
2018-01-21T08:33:20.566Z,998.57
2018-01-21T08:34:20.553Z,998.55
2018-01-21T08:35:20.538Z,998.58
2018-01-21T08:36:20.524Z,998.57
2018-01-21T08:37:20.508Z,998.59
2018-01-21T08:38:20.496Z,998.64
2018-01-21T08:39:20.480Z,998.67
2018-01-21T08:40:20.466Z,998.65
2018-01-21T08:41:20.451Z,998.75
2018-01-21T08:42:20.435Z,998.71
2018-01-21T08:43:20.421Z,998.70
2018-01-21T08:44:20.408Z,998.74
2018-01-21T08:45:20.392Z,998.74
2018-01-21T08:46:20.378Z,998.71
2018-01-21T08:47:20.363Z,998.77
2018-01-21T08:48:20.350Z,998.78
2018-01-21T08:49:20.334Z,998.78
2018-01-21T08:50:20.320Z,998.75
2018-01-21T08:51:20.305Z,998.77
2018-01-21T08:52:20.292Z,998.81
2018-01-21T08:53:20.280Z,998.78
2018-01-21T08:54:20.263Z,998.76
2018-01-21T08:55:20.247Z,998.79
2018-01-21T08:56:20.233Z,998.79
2018-01-21T08:57:20.219Z,998.83
2018-01-21T08:58:20.207Z,998.84
2018-01-21T08:59:20.189Z,998.85
2018-01-21T09:00:20.175Z,998.84
2018-01-21T09:01:20.160Z,998.90
2018-01-21T09:02:20.146Z,998.87
2018-01-21T09:03:20.132Z,998.86
2018-01-21T09:04:20.117Z,998.84
2018-01-21T09:05:20.105Z,998.84
2018-01-21T09:06:20.088Z,998.87
2018-01-21T09:07:20.074Z,998.82
2018-01-21T09:08:20.060Z,998.83
2018-01-21T09:09:20.045Z,998.80
2018-01-21T09:10:20.031Z,998.79
2018-01-21T09:11:20.018Z,998.81
2018-01-21T09:12:20.003Z,998.86
2018-01-21T09:13:19.986Z,998.89
2018-01-21T09:14:19.973Z,998.91
2018-01-21T09:15:19.958Z,998.89
2018-01-21T09:16:19.944Z,998.92
2018-01-21T09:17:19.938Z,998.94
2018-01-21T09:18:19.915Z,998.94
2018-01-21T09:19:19.906Z,998.95
2018-01-21T09:20:19.891Z,998.98
2018-01-21T09:21:19.879Z,998.97
2018-01-21T09:22:19.859Z,999.04
2018-01-21T09:23:19.845Z,999.04
2018-01-21T09:24:19.831Z,999.05
2018-01-21T09:25:19.816Z,999.08
2018-01-21T09:26:19.805Z,999.09
2018-01-21T09:27:19.789Z,999.05
2018-01-21T09:28:19.775Z,999.06
2018-01-21T09:29:19.761Z,999.06
2018-01-21T09:30:19.747Z,999.07
2018-01-21T09:31:19.732Z,999.09
2018-01-21T09:32:19.720Z,999.09
2018-01-21T09:33:19.705Z,999.09
2018-01-21T09:34:19.691Z,999.06
2018-01-21T09:35:19.679Z,999.08
2018-01-21T09:36:19.664Z,999.09
2018-01-21T09:37:19.648Z,999.11
2018-01-21T09:38:19.634Z,999.18
2018-01-21T09:39:19.621Z,999.18
2018-01-21T09:40:19.606Z,999.23
2018-01-21T09:41:19.592Z,999.24
2018-01-21T09:42:19.579Z,999.31
2018-01-21T09:43:19.565Z,999.35
2018-01-21T09:44:19.550Z,999.39
2018-01-21T09:45:19.536Z,999.39
2018-01-21T09:46:19.522Z,999.45
2018-01-21T09:47:19.509Z,999.46
2018-01-21T09:48:19.495Z,999.51
2018-01-21T09:49:19.480Z,999.50
2018-01-21T09:50:19.467Z,999.54
2018-01-21T09:51:19.454Z,999.52
2018-01-21T09:52:19.444Z,999.54
2018-01-21T09:53:19.462Z,999.57
2018-01-21T09:54:19.413Z,999.57
2018-01-21T09:55:19.400Z,999.53
2018-01-21T09:56:19.386Z,999.60
2018-01-21T09:57:19.371Z,999.61
2018-01-21T09:58:19.358Z,999.68
2018-01-21T09:59:19.345Z,999.71
2018-01-21T10:00:19.332Z,999.65
2018-01-21T10:01:19.317Z,999.63
2018-01-21T10:02:19.304Z,999.61
2018-01-21T10:03:19.307Z,999.61
2018-01-21T10:04:19.278Z,999.69
2018-01-21T10:05:19.268Z,999.72
2018-01-21T10:06:19.251Z,999.72
2018-01-21T10:07:19.239Z,999.78
2018-01-21T10:08:19.224Z,999.77
2018-01-21T10:09:19.211Z,999.78
2018-01-21T10:10:19.197Z,999.82
2018-01-21T10:11:19.184Z,999.81
2018-01-21T10:12:19.172Z,999.79
2018-01-21T10:13:19.157Z,999.75
2018-01-21T10:14:19.145Z,999.81
2018-01-21T10:15:19.131Z,999.78
2018-01-21T10:16:19.120Z,999.78
2018-01-21T10:17:19.105Z,999.83
2018-01-21T10:18:19.093Z,999.89
2018-01-21T10:19:19.079Z,999.93
2018-01-21T10:20:19.066Z,999.95
2018-01-21T10:21:19.052Z,999.92
2018-01-21T10:22:19.047Z,999.97
2018-01-21T10:23:19.026Z,999.96
2018-01-21T10:24:19.014Z,999.98
2018-01-21T10:25:18.999Z,999.98
2018-01-21T10:26:18.987Z,999.93
2018-01-21T10:27:18.974Z,999.96
2018-01-21T10:28:18.961Z,999.97
2018-01-21T10:29:18.948Z,999.94
2018-01-21T10:30:18.934Z,999.96
2018-01-21T10:31:18.923Z,999.97
2018-01-21T10:32:18.910Z,999.95
2018-01-21T10:33:18.896Z,999.95
2018-01-21T10:34:18.883Z,999.97
2018-01-21T10:35:18.872Z,999.99
2018-01-21T10:36:18.861Z,999.99
2018-01-21T10:37:18.846Z,1000.02
2018-01-21T10:38:18.840Z,1000.02
2018-01-21T10:39:18.822Z,1000.00
2018-01-21T10:40:18.811Z,999.93
2018-01-21T10:41:18.799Z,999.96
2018-01-21T10:42:18.795Z,1000.00
2018-01-21T10:43:18.777Z,1000.00
2018-01-21T10:44:18.766Z,1000.05
2018-01-21T10:45:18.753Z,1000.05
2018-01-21T10:46:18.744Z,1000.05
2018-01-21T10:47:18.777Z,1000.04
2018-01-21T10:48:18.723Z,1000.11
2018-01-21T10:49:18.711Z,1000.17
2018-01-21T10:50:18.701Z,1000.18
2018-01-21T10:51:18.692Z,1000.20
2018-01-21T10:52:18.681Z,1000.19
2018-01-21T10:53:18.671Z,1000.17
2018-01-21T10:54:18.662Z,1000.18
2018-01-21T10:55:18.653Z,1000.17
2018-01-21T10:56:18.643Z,1000.17
2018-01-21T10:57:18.631Z,1000.17
2018-01-21T10:58:18.621Z,1000.22
2018-01-21T10:59:18.611Z,1000.19
2018-01-21T11:00:18.600Z,1000.24
2018-01-21T11:01:18.590Z,1000.22
2018-01-21T11:02:18.579Z,1000.23
2018-01-21T11:03:18.569Z,1000.22
2018-01-21T11:04:18.557Z,1000.25
2018-01-21T11:05:18.544Z,1000.25
2018-01-21T11:06:18.533Z,1000.21
2018-01-21T11:07:18.521Z,1000.19
2018-01-21T11:08:18.510Z,1000.21
2018-01-21T11:09:18.498Z,1000.21
2018-01-21T11:10:18.486Z,1000.22
2018-01-21T11:11:18.479Z,1000.24
2018-01-21T11:12:18.463Z,1000.31
2018-01-21T11:13:18.449Z,1000.26
2018-01-21T11:14:18.437Z,1000.21
2018-01-21T11:15:18.431Z,1000.22
2018-01-21T11:16:18.414Z,1000.18
2018-01-21T11:17:18.402Z,1000.15
2018-01-21T11:18:18.390Z,1000.19
2018-01-21T11:19:18.380Z,1000.16
2018-01-21T11:20:18.369Z,1000.14
2018-01-21T11:21:18.364Z,1000.08
2018-01-21T11:22:18.347Z,1000.11
2018-01-21T11:23:18.341Z,1000.03
2018-01-21T11:24:18.328Z,1000.03
2018-01-21T11:25:18.364Z,1000.02
2018-01-21T11:26:18.308Z,1000.00
2018-01-21T11:27:18.298Z,1000.02
2018-01-21T11:28:18.297Z,1000.08
2018-01-21T11:29:18.287Z,1000.03
2018-01-21T11:30:18.270Z,1000.09
2018-01-21T11:31:18.260Z,1000.06
2018-01-21T11:32:18.252Z,1000.03
2018-01-21T11:33:18.242Z,1000.07
2018-01-21T11:34:18.233Z,1000.07
2018-01-21T11:35:18.223Z,1000.12
2018-01-21T11:36:18.215Z,1000.15
2018-01-21T11:37:18.207Z,1000.12
2018-01-21T11:38:18.196Z,1000.14
2018-01-21T11:39:18.186Z,1000.11
2018-01-21T11:40:18.177Z,1000.15
2018-01-21T11:41:18.167Z,1000.10
2018-01-21T11:42:18.158Z,1000.13
2018-01-21T11:43:18.148Z,1000.05
2018-01-21T11:44:18.149Z,1000.11
2018-01-21T11:45:18.133Z,1000.09
2018-01-21T11:46:18.120Z,1000.08
2018-01-21T11:47:18.112Z,1000.07
2018-01-21T11:48:18.102Z,1000.07
2018-01-21T11:49:18.094Z,1000.08
2018-01-21T11:50:18.089Z,1000.01
2018-01-21T11:51:18.076Z,1000.05
2018-01-21T11:52:18.068Z,1000.06
2018-01-21T11:53:18.059Z,1000.05
2018-01-21T11:54:18.051Z,1000.04
2018-01-21T11:55:18.043Z,1000.06
2018-01-21T11:56:18.034Z,1000.06
2018-01-21T11:57:18.026Z,1000.04
2018-01-21T11:58:18.018Z,1000.01
2018-01-21T11:59:18.011Z,1000.00
2018-01-21T12:00:18.019Z,999.96
2018-01-21T12:01:17.992Z,999.96
2018-01-21T12:02:17.984Z,1000.00
2018-01-21T12:03:17.976Z,999.99
2018-01-21T12:04:17.968Z,999.99
2018-01-21T12:05:17.959Z,1000.01
2018-01-21T12:06:17.951Z,999.98
2018-01-21T12:07:17.944Z,999.95
2018-01-21T12:08:17.935Z,999.97
2018-01-21T12:09:17.925Z,999.94
2018-01-21T12:10:17.917Z,999.91
2018-01-21T12:11:17.909Z,999.96
2018-01-21T12:12:17.900Z,999.94
2018-01-21T12:13:17.890Z,999.91
2018-01-21T12:14:17.882Z,999.95
2018-01-21T12:15:17.873Z,1000.01
2018-01-21T12:16:17.865Z,1000.03
2018-01-21T12:17:17.855Z,999.96
2018-01-21T12:18:17.889Z,999.88
2018-01-21T12:19:17.838Z,999.87
2018-01-21T12:20:17.836Z,999.95
2018-01-21T12:21:17.817Z,999.97
2018-01-21T12:22:17.810Z,999.97
2018-01-21T12:23:17.799Z,1000.04
2018-01-21T12:24:17.789Z,1000.04
2018-01-21T12:25:17.779Z,1000.08